createdAt,value
2022-11-12T00:01:37.965Z,102171.25
2022-11-12T00:05:59.263Z,102171.50
2022-11-12T00:10:20.768Z,102164.88
2022-11-12T00:14:42.271Z,102168.69
2022-11-12T00:19:05.095Z,102161.41
2022-11-12T00:23:26.571Z,102166.34
2022-11-12T00:27:48.080Z,102168.41
2022-11-12T00:32:10.227Z,102169.53
2022-11-12T00:36:33.081Z,102164.38
2022-11-12T00:40:54.554Z,102165.13
2022-11-12T00:45:16.001Z,102167.13
2022-11-12T00:49:37.573Z,102165.47
2022-11-12T00:54:00.364Z,102169.81
2022-11-12T00:58:21.479Z,102170.31
2022-11-12T01:02:47.705Z,102163.09
2022-11-12T01:07:11.897Z,102158.47
2022-11-12T01:11:34.825Z,102164.28
2022-11-12T01:15:56.110Z,102162.13
2022-11-12T01:20:17.787Z,102168.69
2022-11-12T01:24:39.366Z,102176.13
2022-11-12T01:29:01.897Z,102158.56
2022-11-12T01:33:23.174Z,102158.94
2022-11-12T01:37:44.584Z,102157.53
2022-11-12T01:42:05.849Z,102167.75
2022-11-12T01:46:29.878Z,102165.66
2022-11-12T01:50:51.747Z,102176.59
2022-11-12T01:55:15.295Z,102171.44
2022-11-12T01:59:39.179Z,102165.53
2022-11-12T02:04:02.399Z,102167.00
2022-11-12T02:08:24.075Z,102160.50
2022-11-12T02:13:03.609Z,102164.09
2022-11-12T02:17:25.148Z,102160.31
2022-11-12T02:21:48.169Z,102154.69
2022-11-12T02:26:09.761Z,102159.50
2022-11-12T02:30:34.708Z,102152.19
2022-11-12T02:34:55.863Z,102155.28
2022-11-12T02:39:19.651Z,102158.00
2022-11-12T02:43:41.431Z,102149.31
2022-11-12T02:48:02.635Z,102156.72
2022-11-12T02:52:24.462Z,102155.94
2022-11-12T02:56:47.387Z,102146.66
2022-11-12T03:01:10.576Z,102137.34
2022-11-12T03:05:33.530Z,102149.78
2022-11-12T03:09:54.810Z,102145.00
2022-11-12T03:14:17.286Z,102152.44
2022-11-12T03:18:38.838Z,102148.72
2022-11-12T03:23:01.398Z,102145.03
2022-11-12T03:27:22.451Z,102143.06
2022-11-12T03:31:45.128Z,102148.47
2022-11-12T03:36:06.750Z,102150.72
2022-11-12T03:40:28.497Z,102137.34
2022-11-12T03:44:49.830Z,102145.03
2022-11-12T03:49:12.506Z,102140.69
2022-11-12T03:53:33.837Z,102120.34
2022-11-12T03:57:56.481Z,102123.00
2022-11-12T04:02:17.794Z,102116.13
2022-11-12T04:06:58.184Z,102115.94
2022-11-12T04:11:20.400Z,102113.16
2022-11-12T04:15:41.552Z,102114.13
2022-11-12T04:20:20.683Z,102116.19
2022-11-12T04:25:01.441Z,102116.25
2022-11-12T04:29:40.524Z,102120.06
2022-11-12T04:34:22.817Z,102119.34
2022-11-12T04:38:44.542Z,102109.22
2022-11-12T04:43:25.732Z,102103.94
2022-11-12T04:47:47.411Z,102099.09
2022-11-12T04:52:09.027Z,102101.56
2022-11-12T04:56:30.396Z,102105.84
2022-11-12T05:00:53.380Z,102107.50
2022-11-12T05:05:14.963Z,102095.56
2022-11-12T05:09:36.942Z,102093.75
2022-11-12T05:13:58.472Z,102093.75
2022-11-12T05:18:21.467Z,102082.84
2022-11-12T05:22:50.480Z,102070.78
2022-11-12T05:27:21.903Z,102075.97
2022-11-12T05:31:43.446Z,102069.19
2022-11-12T05:36:06.827Z,102067.22
2022-11-12T05:40:28.298Z,102064.53
2022-11-12T05:44:49.667Z,102055.09
2022-11-12T05:49:10.977Z,102060.38
2022-11-12T05:53:33.771Z,102056.94
2022-11-12T05:57:55.366Z,102061.78
2022-11-12T06:02:16.838Z,102058.91
2022-11-12T06:06:38.358Z,102056.44
2022-11-12T06:11:01.436Z,102065.28
2022-11-12T06:15:25.063Z,102068.94
2022-11-12T06:19:46.564Z,102065.97
2022-11-12T06:24:08.112Z,102066.91
2022-11-12T06:28:31.186Z,102067.91
2022-11-12T06:32:52.956Z,102071.16
2022-11-12T06:37:14.696Z,102079.28
2022-11-12T06:41:36.096Z,102080.00
2022-11-12T06:46:01.888Z,102085.88
2022-11-12T06:50:23.179Z,102090.94
2022-11-12T06:54:44.728Z,102093.19
2022-11-12T06:59:05.995Z,102102.31
2022-11-12T07:03:28.709Z,102103.22
2022-11-12T07:07:50.297Z,102108.97
2022-11-12T07:12:11.634Z,102113.59
2022-11-12T07:16:33.071Z,102126.31
2022-11-12T07:21:00.039Z,102119.78
2022-11-12T07:25:22.135Z,102125.72
2022-11-12T07:29:48.124Z,102119.59
2022-11-12T07:34:09.998Z,102118.25
2022-11-12T07:38:33.870Z,102117.41
2022-11-12T07:42:55.159Z,102113.09
2022-11-12T07:47:16.640Z,102110.94
2022-11-12T07:51:38.075Z,102097.78
2022-11-12T07:56:01.956Z,102088.06
2022-11-12T08:00:24.267Z,102088.00
2022-11-12T08:04:45.718Z,102083.34
2022-11-12T08:09:08.834Z,102071.91
2022-11-12T08:13:31.820Z,102060.19
2022-11-12T08:17:52.922Z,102062.75
2022-11-12T08:22:15.399Z,102065.31
2022-11-12T08:26:37.007Z,102069.47
2022-11-12T08:31:04.558Z,102076.22
2022-11-12T08:35:26.355Z,102067.44
2022-11-12T08:39:47.610Z,102064.78
2022-11-12T08:44:09.094Z,102076.44
2022-11-12T08:48:32.381Z,102079.34
2022-11-12T08:52:53.679Z,102083.44
2022-11-12T08:57:15.163Z,102077.66
2022-11-12T09:01:36.746Z,102073.72
2022-11-12T09:06:03.255Z,102075.41
2022-11-12T09:10:24.490Z,102075.72
2022-11-12T09:14:46.000Z,102070.97
2022-11-12T09:19:07.507Z,102060.81
2022-11-12T09:23:30.457Z,102074.41
2022-11-12T09:27:51.923Z,102070.50
2022-11-12T09:32:13.207Z,102054.84
2022-11-12T09:36:39.535Z,102051.91
2022-11-12T09:41:10.655Z,102058.31
2022-11-12T09:45:33.646Z,102067.06
2022-11-12T09:49:58.943Z,102054.38
2022-11-12T09:54:22.786Z,102062.16
2022-11-12T09:58:46.073Z,102059.94
2022-11-12T10:03:13.723Z,102062.38
2022-11-12T10:07:47.935Z,102047.06
2022-11-12T10:12:35.222Z,102048.22
2022-11-12T10:17:08.706Z,102051.50
2022-11-12T10:21:37.266Z,102053.16
2022-11-12T10:26:01.077Z,102060.53
2022-11-12T10:30:24.528Z,102056.84
2022-11-12T10:34:47.239Z,102057.81
2022-11-12T10:39:08.851Z,102044.97
2022-11-12T10:43:30.307Z,102047.34
2022-11-12T10:47:52.224Z,102035.81
2022-11-12T10:52:24.394Z,102039.69
2022-11-12T10:56:46.062Z,102038.47
2022-11-12T11:01:17.834Z,102038.00
2022-11-12T11:05:52.043Z,102038.31
2022-11-12T11:10:26.250Z,102017.63
2022-11-12T11:14:47.925Z,102014.00
2022-11-12T11:19:10.723Z,102014.22
2022-11-12T11:23:35.543Z,102002.88
2022-11-12T11:28:13.591Z,102007.13
2022-11-12T11:32:48.242Z,102007.25
2022-11-12T11:37:23.617Z,102002.91
2022-11-12T11:41:55.718Z,102005.56
2022-11-12T11:46:32.637Z,101994.09
2022-11-12T11:51:00.063Z,101991.81
2022-11-12T11:55:34.301Z,101985.13
2022-11-12T12:00:12.145Z,101985.06
2022-11-12T12:04:46.902Z,101985.59
2022-11-12T12:09:24.020Z,101986.81
2022-11-12T12:14:00.306Z,101986.97
2022-11-12T12:18:34.773Z,101980.56
2022-11-12T12:23:01.778Z,101990.63
2022-11-12T12:27:27.180Z,101991.13
2022-11-12T12:31:54.042Z,101980.72
2022-11-12T12:36:18.295Z,101981.25
2022-11-12T12:40:48.044Z,101981.38
2022-11-12T12:45:31.946Z,101967.25
2022-11-12T12:50:00.274Z,101973.84
2022-11-12T12:54:56.570Z,101962.56
2022-11-12T12:59:23.757Z,101971.03
2022-11-12T13:03:52.246Z,101964.97
2022-11-12T13:08:19.705Z,101953.38
2022-11-12T13:13:04.009Z,101946.16
2022-11-12T13:17:58.271Z,101953.22
2022-11-12T13:22:50.843Z,101949.38
2022-11-12T13:27:12.518Z,101956.31
2022-11-12T13:31:34.177Z,101950.19
2022-11-12T13:36:26.159Z,101949.38
2022-11-12T13:40:53.839Z,101935.72
2022-11-12T13:45:16.285Z,101945.44
2022-11-12T13:49:38.897Z,101938.78
2022-11-12T13:54:00.480Z,101946.13
2022-11-12T13:58:29.994Z,101936.03
2022-11-12T14:02:55.480Z,101924.22
2022-11-12T14:07:37.366Z,101914.56
2022-11-12T14:12:29.342Z,101916.41
2022-11-12T14:17:03.635Z,101912.59
2022-11-12T14:21:24.931Z,101908.47
2022-11-12T14:25:51.208Z,101903.47
2022-11-12T14:30:18.008Z,101888.91
2022-11-12T14:34:40.989Z,101891.50
2022-11-12T14:39:03.101Z,101888.06
2022-11-12T14:43:37.770Z,101896.09
2022-11-12T14:47:59.295Z,101888.09
2022-11-12T14:52:27.738Z,101893.25
2022-11-12T14:56:50.401Z,101888.56
2022-11-12T15:02:08.518Z,101891.50
2022-11-12T15:06:11.133Z,101883.72
2022-11-12T15:10:35.413Z,101889.78
2022-11-12T15:15:07.960Z,101882.03
2022-11-12T15:19:30.086Z,101879.41
2022-11-12T15:23:52.241Z,101883.53
2022-11-12T15:28:15.299Z,101877.38
2022-11-12T15:32:36.639Z,101889.06
2022-11-12T15:36:59.458Z,101895.56
2022-11-12T15:41:24.749Z,101895.53
2022-11-12T15:45:50.817Z,101890.34
2022-11-12T15:50:16.342Z,101903.56
2022-11-12T15:54:41.035Z,101909.16
2022-11-12T15:59:04.001Z,101910.94
2022-11-12T16:03:27.413Z,101924.72
2022-11-12T16:07:48.906Z,101914.88
2022-11-12T16:12:11.988Z,101916.97
2022-11-12T16:16:34.546Z,101919.66
2022-11-12T16:20:57.377Z,101920.09
2022-11-12T16:25:19.077Z,101919.38
2022-11-12T16:29:40.776Z,101907.53
2022-11-12T16:34:02.310Z,101907.69
2022-11-12T16:38:25.904Z,101917.97
2022-11-12T16:42:48.231Z,101917.81
2022-11-12T16:47:12.050Z,101914.50
2022-11-12T16:51:33.482Z,101914.38
2022-11-12T16:55:57.549Z,101900.00
2022-11-12T17:00:19.373Z,101904.63
2022-11-12T17:04:40.709Z,101889.91
2022-11-12T17:09:01.879Z,101893.91
2022-11-12T17:13:24.861Z,101883.44
2022-11-12T17:17:46.701Z,101879.81
2022-11-12T17:22:07.936Z,101873.00
2022-11-12T17:26:29.448Z,101872.69
2022-11-12T17:30:52.007Z,101856.06
2022-11-12T17:35:13.621Z,101861.31
2022-11-12T17:39:35.007Z,101852.41
2022-11-12T17:43:56.806Z,101848.00
2022-11-12T17:48:19.683Z,101846.69
2022-11-12T17:52:41.014Z,101855.56
2022-11-12T17:57:02.552Z,101844.53
2022-11-12T18:01:24.990Z,101847.25
2022-11-12T18:05:56.317Z,101846.31
2022-11-12T18:10:19.716Z,101849.78
2022-11-12T18:14:41.388Z,101845.97
2022-11-12T18:19:02.950Z,101848.25
2022-11-12T18:23:25.913Z,101854.50
2022-11-12T18:27:47.469Z,101852.41
2022-11-12T18:32:08.809Z,101841.63
2022-11-12T18:36:30.312Z,101847.63
2022-11-12T18:41:01.824Z,101845.78
2022-11-12T18:45:23.301Z,101843.91
2022-11-12T18:49:44.962Z,101842.16
2022-11-12T18:54:06.413Z,101835.72
2022-11-12T18:58:34.844Z,101826.50
2022-11-12T19:02:56.729Z,101828.66
2022-11-12T19:07:18.515Z,101842.31
2022-11-12T19:11:39.957Z,101824.44
2022-11-12T19:16:05.395Z,101837.16
2022-11-12T19:20:26.864Z,101830.38
2022-11-12T19:24:48.724Z,101829.50
2022-11-12T19:29:10.323Z,101828.53
2022-11-12T19:33:33.675Z,101820.38
2022-11-12T19:37:55.339Z,101810.94
2022-11-12T19:42:16.595Z,101811.59
2022-11-12T19:46:37.956Z,101815.53
2022-11-12T19:51:03.335Z,101804.22
2022-11-12T19:55:25.767Z,101800.81
2022-11-12T19:59:47.020Z,101789.00
2022-11-12T20:04:08.427Z,101793.88
2022-11-12T20:08:31.118Z,101786.69
2022-11-12T20:12:52.944Z,101785.28
2022-11-12T20:17:14.350Z,101772.97
2022-11-12T20:21:35.764Z,101777.09
2022-11-12T20:26:02.665Z,101781.41
2022-11-12T20:30:23.756Z,101779.34
2022-11-12T20:34:45.266Z,101771.00
2022-11-12T20:39:06.779Z,101772.69
2022-11-12T20:43:29.743Z,101768.81
2022-11-12T20:47:51.561Z,101773.81
2022-11-12T20:52:13.073Z,101765.66
2022-11-12T20:56:34.484Z,101756.81
2022-11-12T21:00:57.137Z,101764.47
2022-11-12T21:05:18.468Z,101765.56
2022-11-12T21:09:40.048Z,101760.25
2022-11-12T21:14:01.546Z,101750.44
2022-11-12T21:18:27.614Z,101757.66
2022-11-12T21:22:49.049Z,101770.34
2022-11-12T21:27:11.491Z,101765.81
2022-11-12T21:31:33.055Z,101764.19
2022-11-12T21:35:55.889Z,101760.56
2022-11-12T21:40:17.894Z,101758.88
2022-11-12T21:44:39.143Z,101756.50
2022-11-12T21:49:00.714Z,101759.09
2022-11-12T21:53:23.533Z,101752.25
2022-11-12T21:57:44.980Z,101747.47
2022-11-12T22:02:06.461Z,101739.03
2022-11-12T22:06:28.435Z,101740.75
2022-11-12T22:10:51.094Z,101735.66
2022-11-12T22:15:12.237Z,101737.19
2022-11-12T22:19:34.486Z,101732.25
2022-11-12T22:23:56.295Z,101729.31
2022-11-12T22:28:19.185Z,101722.00
2022-11-12T22:32:40.388Z,101714.50
2022-11-12T22:37:01.881Z,101719.63
2022-11-12T22:41:24.442Z,101714.16
2022-11-12T22:45:47.144Z,101720.66
2022-11-12T22:50:09.620Z,101714.53
2022-11-12T22:54:30.980Z,101719.31
2022-11-12T22:58:52.455Z,101718.97
2022-11-12T23:03:14.945Z,101721.75
2022-11-12T23:07:36.565Z,101716.97
2022-11-12T23:11:58.379Z,101711.88
2022-11-12T23:16:20.828Z,101722.78
2022-11-12T23:20:43.539Z,101716.09
2022-11-12T23:25:05.366Z,101720.03
2022-11-12T23:29:26.526Z,101716.63
2022-11-12T23:33:48.453Z,101718.63
2022-11-12T23:38:11.154Z,101708.41
2022-11-12T23:42:32.593Z,101714.34
2022-11-12T23:46:54.020Z,101693.09
2022-11-12T23:51:16.348Z,101689.69
2022-11-12T23:55:39.105Z,101664.81
